North Ottawa, Illinois
Current Conditions -  °F | °C
As of 7:35 PM on Tuesday 25 Nov 2014 (Local Time) from KVYS Reporting Station
Clear Clear  
Wind Chill: 21°   Ceiling: Unl
Heat Index: 21°   Visibility: 10mi
Dew Point: 19°   Wind: 3mph
Humidity: 89%   Direction: 170°S
Pressure: 30.19"   Gusts: NA
Location:  41.4349°N, 88.8687°W
Report Text: KVYS 260135Z AUTO 17003KT 10SM CLR M06/M07 A3019 RMK AO2 T10601075
Loading
Personal Weather Stations






























Interactive Weather Map New forecast layout! Learn more

10-Day Weather Forecast

Advertisements
Track Severe Weather on mobile